createdAt,value
2017-12-22T00:00:56.012Z,40.23
2017-12-22T00:03:24.237Z,37.00
2017-12-22T00:05:52.478Z,37.67
2017-12-22T00:08:20.694Z,36.57
2017-12-22T00:10:49.685Z,38.77
2017-12-22T00:13:18.897Z,38.27
2017-12-22T00:15:48.790Z,36.80
2017-12-22T00:18:17.794Z,39.17
2017-12-22T00:20:46.018Z,39.20
2017-12-22T00:23:14.245Z,38.60
2017-12-22T00:25:43.230Z,34.33
2017-12-22T00:28:11.464Z,35.00
2017-12-22T00:30:39.685Z,35.23
2017-12-22T00:33:07.906Z,34.10
2017-12-22T00:35:36.114Z,38.50
2017-12-22T00:38:05.109Z,39.50
2017-12-22T00:40:34.098Z,33.57
2017-12-22T00:43:02.409Z,38.33
2017-12-22T00:45:31.380Z,38.23
2017-12-22T00:47:59.590Z,35.17
2017-12-22T00:50:27.828Z,36.57
2017-12-22T00:52:56.039Z,36.17
2017-12-22T00:55:24.276Z,33.30
2017-12-22T00:57:52.657Z,36.90
2017-12-22T01:00:20.879Z,36.67
2017-12-22T01:02:49.083Z,32.73
2017-12-22T01:05:17.315Z,30.63
2017-12-22T01:07:45.517Z,35.00
2017-12-22T01:10:13.727Z,34.10
2017-12-22T01:12:41.922Z,37.27
2017-12-22T01:15:10.894Z,32.10
2017-12-22T01:17:45.825Z,32.47
2017-12-22T01:20:14.822Z,33.30
2017-12-22T01:22:43.081Z,30.53
2017-12-22T01:25:11.281Z,35.33
2017-12-22T01:27:40.262Z,32.37
2017-12-22T01:30:09.249Z,34.40
2017-12-22T01:32:37.469Z,39.53
2017-12-22T01:35:05.690Z,37.87
2017-12-22T01:37:33.912Z,32.43
2017-12-22T01:40:02.131Z,37.03
2017-12-22T01:42:31.131Z,37.63
2017-12-22T01:44:59.341Z,36.80
2017-12-22T01:47:27.588Z,33.60
2017-12-22T01:49:55.827Z,34.90
2017-12-22T01:52:24.063Z,30.80
2017-12-22T01:54:52.291Z,31.20
2017-12-22T01:57:20.490Z,33.30
2017-12-22T01:59:49.791Z,33.00
2017-12-22T02:02:17.982Z,35.53
2017-12-22T02:04:46.201Z,39.23
2017-12-22T02:07:14.423Z,37.67
2017-12-22T02:09:43.429Z,36.43
2017-12-22T02:12:11.656Z,32.70
2017-12-22T02:14:39.855Z,37.20
2017-12-22T02:17:08.846Z,33.77
2017-12-22T02:19:37.826Z,36.87
2017-12-22T02:22:06.839Z,33.00
2017-12-22T02:24:35.822Z,38.47
2017-12-22T02:27:04.807Z,37.50
2017-12-22T02:29:33.062Z,37.43
2017-12-22T02:32:01.281Z,33.13
2017-12-22T02:34:29.741Z,35.60
2017-12-22T02:36:58.730Z,34.30
2017-12-22T02:39:27.719Z,32.43
2017-12-22T02:41:56.730Z,31.60
2017-12-22T02:44:25.717Z,30.63
2017-12-22T02:46:54.694Z,36.10
2017-12-22T02:49:23.195Z,36.23
2017-12-22T02:51:52.175Z,41.87
2017-12-22T02:54:21.167Z,38.80
2017-12-22T02:56:50.158Z,34.33
2017-12-22T02:59:19.146Z,35.40
2017-12-22T03:01:48.163Z,32.97
2017-12-22T03:04:16.398Z,31.10
2017-12-22T03:06:44.662Z,32.03
2017-12-22T03:09:12.886Z,37.80
2017-12-22T03:11:41.115Z,33.20
2017-12-22T03:14:09.345Z,38.20
2017-12-22T03:16:37.581Z,37.60
2017-12-22T03:19:06.586Z,30.90
2017-12-22T03:21:35.570Z,36.33
2017-12-22T03:24:03.795Z,34.63
2017-12-22T03:26:32.049Z,35.27
2017-12-22T03:29:00.310Z,40.40
2017-12-22T03:31:28.570Z,43.77
2017-12-22T03:33:56.783Z,35.40
2017-12-22T03:36:25.010Z,41.20
2017-12-22T03:38:53.228Z,41.60
2017-12-22T03:41:21.474Z,43.57
2017-12-22T03:43:50.473Z,44.30
2017-12-22T03:46:19.489Z,36.07
2017-12-22T03:48:47.731Z,36.20
2017-12-22T03:51:16.742Z,34.23
2017-12-22T03:53:45.723Z,33.27
2017-12-22T03:56:14.714Z,36.30
2017-12-22T03:58:43.716Z,33.00
2017-12-22T04:01:12.714Z,33.47
2017-12-22T04:03:40.958Z,34.53
2017-12-22T04:06:09.981Z,38.67
2017-12-22T04:08:38.210Z,36.90
2017-12-22T04:11:06.721Z,36.90
2017-12-22T04:13:35.564Z,33.13
2017-12-22T04:16:04.130Z,37.20
2017-12-22T04:18:33.383Z,37.60
2017-12-22T04:21:02.414Z,32.50
2017-12-22T04:23:30.657Z,32.80
2017-12-22T04:25:58.861Z,35.10
2017-12-22T04:28:27.096Z,35.60
2017-12-22T04:30:55.302Z,35.97
2017-12-22T04:33:23.554Z,28.07
2017-12-22T04:35:52.562Z,34.67
2017-12-22T04:38:20.821Z,33.57
2017-12-22T04:40:49.819Z,33.17
2017-12-22T04:43:18.817Z,34.83
2017-12-22T04:45:47.821Z,42.73
2017-12-22T04:48:16.102Z,35.30
2017-12-22T04:50:44.262Z,36.00
2017-12-22T04:53:12.536Z,37.50
2017-12-22T04:55:40.781Z,38.03
2017-12-22T04:58:09.012Z,36.80
2017-12-22T05:00:37.254Z,38.73
2017-12-22T05:03:06.830Z,38.13
2017-12-22T05:05:35.179Z,41.47
2017-12-22T05:08:03.416Z,37.90
2017-12-22T05:10:31.670Z,37.37
2017-12-22T05:13:00.672Z,37.17
2017-12-22T05:15:30.495Z,40.50
2017-12-22T05:17:58.725Z,37.90
2017-12-22T05:20:26.958Z,46.80
2017-12-22T05:22:55.242Z,43.40
2017-12-22T05:25:23.479Z,36.77
2017-12-22T05:27:52.494Z,38.70
2017-12-22T05:30:20.754Z,47.93
2017-12-22T05:32:49.782Z,45.87
2017-12-22T05:35:18.430Z,51.10
2017-12-22T05:37:46.672Z,54.80
2017-12-22T05:40:15.018Z,47.27
2017-12-22T05:42:43.228Z,50.70
2017-12-22T05:45:12.187Z,56.30
2017-12-22T05:47:40.443Z,45.27
2017-12-22T05:50:08.675Z,49.90
2017-12-22T05:52:36.914Z,45.77
2017-12-22T05:55:05.137Z,42.53
2017-12-22T05:57:33.344Z,41.20
2017-12-22T06:00:01.590Z,39.20
2017-12-22T06:02:30.622Z,40.30
2017-12-22T06:04:59.388Z,32.27
2017-12-22T06:07:28.350Z,32.57
2017-12-22T06:09:56.585Z,33.07
2017-12-22T06:12:25.127Z,29.00
2017-12-22T06:14:54.134Z,29.93
2017-12-22T06:17:22.378Z,35.13
2017-12-22T06:19:50.614Z,29.57
2017-12-22T06:22:18.867Z,27.93
2017-12-22T06:24:47.114Z,30.30
2017-12-22T06:27:16.114Z,32.00
2017-12-22T06:29:45.115Z,29.47
2017-12-22T06:32:14.105Z,31.07
2017-12-22T06:34:42.359Z,30.73
2017-12-22T06:37:10.586Z,28.90
2017-12-22T06:39:39.130Z,28.97
2017-12-22T06:42:08.125Z,29.87
2017-12-22T06:44:37.224Z,29.30
2017-12-22T06:47:06.276Z,28.27
2017-12-22T06:49:34.505Z,28.50
2017-12-22T06:52:02.750Z,24.83
2017-12-22T06:54:31.738Z,28.43
2017-12-22T06:57:00.013Z,31.70
2017-12-22T06:59:28.507Z,25.17
2017-12-22T07:01:56.733Z,28.73
2017-12-22T07:04:25.087Z,26.30
2017-12-22T07:06:53.301Z,23.90
2017-12-22T07:09:21.536Z,30.20
2017-12-22T07:11:49.754Z,31.57
2017-12-22T07:14:18.135Z,31.13
2017-12-22T07:16:46.354Z,27.40
2017-12-22T07:19:14.591Z,32.50
2017-12-22T07:21:42.850Z,33.20
2017-12-22T07:24:11.106Z,35.77
2017-12-22T07:26:39.330Z,33.00
2017-12-22T07:29:07.920Z,30.00
2017-12-22T07:31:36.906Z,30.40
2017-12-22T07:34:05.899Z,29.90
2017-12-22T07:36:34.890Z,33.23
2017-12-22T07:39:03.886Z,31.57
2017-12-22T07:41:32.877Z,28.40
2017-12-22T07:44:01.855Z,32.17
2017-12-22T07:46:30.305Z,33.73
2017-12-22T07:48:58.551Z,32.30
2017-12-22T07:51:26.856Z,34.93
2017-12-22T07:53:55.090Z,33.10
2017-12-22T07:56:23.411Z,30.33
2017-12-22T07:58:51.941Z,29.60
2017-12-22T08:01:21.362Z,32.23
2017-12-22T08:03:49.629Z,31.17
2017-12-22T08:06:18.094Z,31.20
2017-12-22T08:08:46.439Z,35.13
2017-12-22T08:11:14.674Z,31.47
2017-12-22T08:13:42.931Z,33.67
2017-12-22T08:16:11.934Z,34.63
2017-12-22T08:18:40.182Z,32.60
2017-12-22T08:21:09.174Z,36.17
2017-12-22T08:23:37.751Z,37.23
2017-12-22T08:26:05.965Z,32.90
2017-12-22T08:28:34.246Z,36.20
2017-12-22T08:31:02.474Z,36.57
2017-12-22T08:33:30.982Z,36.90
2017-12-22T08:35:59.967Z,35.60
2017-12-22T08:38:28.231Z,40.70
2017-12-22T08:40:57.234Z,29.37
2017-12-22T08:43:26.222Z,32.40
2017-12-22T08:45:54.466Z,39.00
2017-12-22T08:48:22.690Z,35.17
2017-12-22T08:50:50.926Z,39.43
2017-12-22T08:53:19.143Z,37.27
2017-12-22T08:55:47.434Z,33.87
2017-12-22T08:58:15.670Z,34.07
2017-12-22T09:00:44.660Z,35.93
2017-12-22T09:03:13.662Z,37.27
2017-12-22T09:05:41.923Z,31.07
2017-12-22T09:08:10.162Z,36.27
2017-12-22T09:10:38.381Z,35.40
2017-12-22T09:13:07.378Z,35.13
2017-12-22T09:15:36.375Z,39.20
2017-12-22T09:18:04.617Z,37.57
2017-12-22T09:20:33.629Z,31.67
2017-12-22T09:23:02.658Z,37.20
2017-12-22T09:25:30.884Z,32.10
2017-12-22T09:27:59.923Z,38.00
2017-12-22T09:30:28.139Z,33.87
2017-12-22T09:32:56.346Z,42.27
2017-12-22T09:35:25.332Z,39.70
2017-12-22T09:37:54.325Z,36.20
2017-12-22T09:40:22.547Z,34.17
2017-12-22T09:42:50.788Z,40.37
2017-12-22T09:45:20.674Z,38.23
2017-12-22T09:47:48.878Z,38.73
2017-12-22T09:50:17.129Z,41.63
2017-12-22T09:52:46.142Z,48.77
2017-12-22T09:55:14.452Z,41.67
2017-12-22T09:57:43.396Z,49.70
2017-12-22T10:00:12.614Z,47.60
2017-12-22T10:02:40.926Z,42.03
2017-12-22T10:05:09.450Z,45.57
2017-12-22T10:07:37.686Z,41.87
2017-12-22T10:10:05.946Z,45.50
2017-12-22T10:12:34.199Z,46.03
2017-12-22T10:15:02.419Z,45.10
2017-12-22T10:17:30.641Z,45.83
2017-12-22T10:19:58.878Z,53.60
2017-12-22T10:22:27.108Z,46.43
2017-12-22T10:24:55.339Z,47.40
2017-12-22T10:27:24.464Z,46.10
2017-12-22T10:29:52.702Z,53.63
2017-12-22T10:32:20.933Z,44.43
2017-12-22T10:34:49.172Z,49.40
2017-12-22T10:37:18.194Z,43.87
2017-12-22T10:39:46.426Z,40.70
2017-12-22T10:42:14.649Z,41.20
2017-12-22T10:44:42.903Z,33.77
2017-12-22T10:47:11.120Z,41.77
2017-12-22T10:49:39.362Z,39.67
2017-12-22T10:52:07.590Z,41.00
2017-12-22T10:54:35.826Z,40.30
2017-12-22T10:57:04.089Z,43.70
2017-12-22T10:59:32.314Z,34.87
2017-12-22T11:02:00.585Z,33.23
2017-12-22T11:04:28.822Z,33.20
2017-12-22T11:06:57.046Z,32.17
2017-12-22T11:09:25.320Z,36.00
2017-12-22T11:11:53.590Z,28.00
2017-12-22T11:14:22.070Z,31.97
2017-12-22T11:16:50.346Z,31.67
2017-12-22T11:19:18.589Z,25.93
2017-12-22T11:21:46.795Z,29.20
2017-12-22T11:24:15.021Z,32.50
2017-12-22T11:26:43.359Z,24.17
2017-12-22T11:29:11.626Z,23.40
2017-12-22T11:31:39.847Z,20.83
2017-12-22T11:34:08.078Z,20.77
2017-12-22T11:36:36.768Z,16.90
2017-12-22T11:39:04.999Z,16.67
2017-12-22T11:41:33.229Z,20.53
2017-12-22T11:44:02.290Z,18.57
2017-12-22T11:46:31.034Z,20.77
2017-12-22T11:49:00.028Z,20.73
2017-12-22T11:51:28.256Z,17.40
2017-12-22T11:53:56.678Z,16.87
2017-12-22T11:56:24.924Z,19.37
2017-12-22T11:58:53.947Z,17.50
2017-12-22T12:01:22.267Z,20.30
2017-12-22T12:03:50.450Z,20.33
2017-12-22T12:06:18.674Z,18.10
2017-12-22T12:08:46.902Z,18.47
2017-12-22T12:11:15.911Z,21.17
2017-12-22T12:13:44.898Z,18.20
2017-12-22T12:16:13.910Z,20.50
2017-12-22T12:18:42.154Z,23.83
2017-12-22T12:21:10.650Z,17.33
2017-12-22T12:23:39.638Z,22.27
2017-12-22T12:26:09.686Z,19.50
2017-12-22T12:28:37.900Z,20.10
2017-12-22T12:31:06.185Z,22.37
2017-12-22T12:33:34.392Z,21.77
2017-12-22T12:36:03.374Z,23.07
2017-12-22T12:38:32.376Z,21.67
2017-12-22T12:41:01.391Z,25.40
2017-12-22T12:43:30.361Z,22.43
2017-12-22T12:45:58.673Z,27.13
2017-12-22T12:48:27.214Z,23.97
2017-12-22T12:50:55.537Z,22.30
2017-12-22T12:53:23.771Z,22.80
2017-12-22T12:55:52.035Z,23.77
2017-12-22T12:58:20.269Z,22.60
2017-12-22T13:00:48.486Z,23.00
2017-12-22T13:03:16.965Z,20.43
2017-12-22T13:05:45.958Z,20.80
2017-12-22T13:08:14.936Z,22.83
2017-12-22T13:10:43.942Z,20.20
2017-12-22T13:13:12.157Z,19.20
2017-12-22T13:15:40.434Z,19.03
2017-12-22T13:18:08.663Z,16.50
2017-12-22T13:20:37.661Z,17.03
2017-12-22T13:23:06.652Z,17.27
2017-12-22T13:25:35.230Z,17.27
2017-12-22T13:28:03.468Z,19.93
2017-12-22T13:30:32.448Z,17.70
2017-12-22T13:33:01.433Z,18.50
2017-12-22T13:35:29.650Z,21.60
2017-12-22T13:37:57.881Z,19.40
2017-12-22T13:40:26.111Z,27.87
2017-12-22T13:42:54.339Z,24.77
2017-12-22T13:45:22.546Z,24.00
2017-12-22T13:47:51.580Z,25.20
2017-12-22T13:50:19.762Z,22.10
2017-12-22T13:52:48.022Z,20.00
2017-12-22T13:55:16.998Z,19.87
2017-12-22T13:57:46.006Z,20.57
2017-12-22T14:00:14.240Z,17.97
2017-12-22T14:02:42.468Z,20.00
2017-12-22T14:05:10.717Z,18.97
2017-12-22T14:07:39.710Z,21.73
2017-12-22T14:10:08.710Z,23.07
2017-12-22T14:12:36.978Z,22.63
2017-12-22T14:15:05.993Z,23.43
2017-12-22T14:17:34.197Z,25.80
2017-12-22T14:20:02.446Z,23.23
2017-12-22T14:22:30.670Z,22.87
2017-12-22T14:24:58.889Z,21.90
2017-12-22T14:27:27.143Z,23.77
2017-12-22T14:29:56.123Z,26.03
2017-12-22T14:32:25.434Z,22.27
2017-12-22T14:34:54.434Z,20.43
2017-12-22T14:37:22.677Z,23.00
2017-12-22T14:39:50.908Z,23.20
2017-12-22T14:42:19.154Z,23.00
2017-12-22T14:44:48.158Z,20.53
2017-12-22T14:47:16.411Z,19.87
2017-12-22T14:49:45.394Z,20.23
2017-12-22T14:52:13.635Z,19.97
2017-12-22T14:54:41.898Z,21.63
2017-12-22T14:57:10.137Z,20.30
2017-12-22T14:59:39.972Z,21.73
2017-12-22T15:02:08.181Z,20.23
2017-12-22T15:04:36.417Z,21.17
2017-12-22T15:07:04.662Z,22.37
2017-12-22T15:09:33.675Z,19.73
2017-12-22T15:12:01.928Z,22.27
2017-12-22T15:14:31.005Z,19.63
2017-12-22T15:16:59.248Z,18.17
2017-12-22T15:21:59.914Z,18.20
2017-12-22T15:24:28.201Z,16.20
2017-12-22T15:26:56.497Z,14.60
2017-12-22T15:29:24.676Z,16.30
2017-12-22T15:31:53.672Z,16.17
2017-12-22T15:34:21.940Z,17.83
2017-12-22T15:36:50.154Z,17.10
2017-12-22T15:39:18.399Z,17.07
2017-12-22T15:41:46.631Z,19.30
2017-12-22T15:44:14.869Z,21.47
2017-12-22T15:46:43.955Z,19.27
2017-12-22T15:49:12.178Z,17.43
2017-12-22T15:51:40.458Z,17.67
2017-12-22T15:54:08.689Z,19.77
2017-12-22T15:56:36.922Z,19.03
2017-12-22T15:59:05.957Z,22.43
2017-12-22T16:01:34.594Z,21.17
2017-12-22T16:04:02.832Z,25.53
2017-12-22T16:06:31.142Z,26.50
2017-12-22T16:08:59.428Z,25.60
2017-12-22T16:11:28.057Z,29.63
2017-12-22T16:13:56.902Z,26.73
2017-12-22T16:16:25.123Z,30.30
2017-12-22T16:18:53.389Z,31.00
2017-12-22T16:21:21.638Z,29.37
2017-12-22T16:23:49.903Z,27.87
2017-12-22T16:26:18.142Z,27.13
2017-12-22T16:28:46.380Z,26.80
2017-12-22T16:31:15.387Z,24.87
2017-12-22T16:33:43.634Z,25.67
2017-12-22T16:36:12.623Z,27.70
2017-12-22T16:38:41.645Z,26.63
2017-12-22T16:41:09.899Z,29.03
2017-12-22T16:43:38.130Z,29.43
2017-12-22T16:46:06.387Z,25.77
2017-12-22T16:48:34.627Z,25.97
2017-12-22T16:51:02.911Z,26.70
2017-12-22T16:53:31.155Z,33.07
2017-12-22T16:55:59.671Z,28.73
2017-12-22T16:58:28.654Z,29.00
2017-12-22T17:00:56.892Z,30.67
2017-12-22T17:03:25.115Z,22.60
2017-12-22T17:05:53.495Z,27.07
2017-12-22T17:08:21.755Z,23.27
2017-12-22T17:10:50.754Z,22.27
2017-12-22T17:13:18.986Z,24.03
2017-12-22T17:15:47.998Z,24.77
2017-12-22T17:18:16.214Z,20.43
2017-12-22T17:20:44.425Z,17.97
2017-12-22T17:23:12.649Z,22.70
2017-12-22T17:25:40.887Z,20.90
2017-12-22T17:28:09.488Z,24.20
2017-12-22T17:30:38.076Z,21.87
2017-12-22T17:33:06.316Z,22.63
2017-12-22T17:35:34.553Z,20.00
2017-12-22T17:38:02.804Z,21.10
2017-12-22T17:40:31.047Z,21.87
2017-12-22T17:42:59.290Z,25.77
2017-12-22T17:45:27.503Z,22.83
2017-12-22T17:47:55.727Z,23.90
2017-12-22T17:50:25.601Z,21.50
2017-12-22T17:52:53.839Z,19.97
2017-12-22T17:55:22.126Z,30.67
2017-12-22T17:57:50.367Z,27.70
2017-12-22T18:00:18.587Z,22.93
2017-12-22T18:02:46.823Z,21.53
2017-12-22T18:05:15.050Z,24.73
2017-12-22T18:07:44.045Z,21.30
2017-12-22T18:10:12.328Z,26.27
2017-12-22T18:12:40.579Z,22.70
2017-12-22T18:15:08.839Z,21.77
2017-12-22T18:17:37.074Z,21.10
2017-12-22T18:20:05.291Z,20.90
2017-12-22T18:22:33.554Z,23.13
2017-12-22T18:25:01.785Z,22.30
2017-12-22T18:27:30.815Z,21.60
2017-12-22T18:29:59.114Z,23.80
2017-12-22T18:32:27.361Z,21.43
2017-12-22T18:34:55.620Z,21.13
2017-12-22T18:37:24.589Z,21.57
2017-12-22T18:39:52.859Z,21.13
2017-12-22T18:42:21.857Z,23.50
2017-12-22T18:44:50.830Z,25.60
2017-12-22T18:47:20.247Z,21.60
2017-12-22T18:49:49.254Z,22.33
2017-12-22T18:52:17.698Z,26.50
2017-12-22T18:54:45.957Z,20.20
2017-12-22T18:57:14.986Z,21.80
2017-12-22T18:59:43.277Z,22.93
2017-12-22T19:02:14.202Z,23.50
2017-12-22T19:04:42.509Z,21.10
2017-12-22T19:07:11.483Z,25.23
2017-12-22T19:09:40.044Z,24.33
2017-12-22T19:12:08.619Z,25.73
2017-12-22T19:14:37.737Z,23.27
2017-12-22T19:17:06.140Z,24.83
2017-12-22T19:19:34.431Z,25.90
2017-12-22T19:22:02.789Z,23.00
2017-12-22T19:24:31.259Z,21.90
2017-12-22T19:26:59.707Z,23.87
2017-12-22T19:29:28.183Z,22.27
2017-12-22T19:31:56.681Z,24.50
2017-12-22T19:34:24.959Z,24.20
2017-12-22T19:36:54.178Z,22.10
2017-12-22T19:39:22.426Z,24.07
2017-12-22T19:41:51.430Z,19.83
2017-12-22T19:44:20.436Z,21.07
2017-12-22T19:46:48.678Z,24.57
2017-12-22T19:49:16.902Z,24.87
2017-12-22T19:51:45.143Z,23.70
2017-12-22T19:54:13.403Z,25.27
2017-12-22T19:56:41.686Z,24.43
2017-12-22T19:59:09.942Z,24.73
2017-12-22T20:01:39.026Z,23.03
2017-12-22T20:04:07.270Z,24.30
2017-12-22T20:06:35.579Z,23.27
2017-12-22T20:09:03.878Z,26.07
2017-12-22T20:11:32.134Z,23.30
2017-12-22T20:14:00.400Z,21.47
2017-12-22T20:16:28.748Z,25.03
2017-12-22T20:18:57.645Z,22.13
2017-12-22T20:21:26.107Z,23.53
2017-12-22T20:23:54.368Z,24.93
2017-12-22T20:26:22.664Z,23.40
2017-12-22T20:28:50.945Z,26.70
2017-12-22T20:31:19.238Z,24.63
2017-12-22T20:33:47.463Z,24.97
2017-12-22T20:36:15.754Z,24.40
2017-12-22T20:38:44.777Z,25.27
2017-12-22T20:41:13.046Z,21.60
2017-12-22T20:43:42.110Z,19.03
2017-12-22T20:46:10.492Z,23.77
2017-12-22T20:48:38.762Z,19.53
2017-12-22T20:51:07.067Z,23.67
2017-12-22T20:53:35.348Z,22.77
2017-12-22T20:56:03.678Z,22.70
2017-12-22T20:58:32.942Z,20.57
2017-12-22T21:01:01.211Z,22.03
2017-12-22T21:03:29.511Z,20.37
2017-12-22T21:05:57.887Z,21.47
2017-12-22T21:08:27.309Z,21.77
2017-12-22T21:10:56.475Z,19.83
2017-12-22T21:13:25.676Z,20.07
2017-12-22T21:15:54.411Z,19.23
2017-12-22T21:18:22.907Z,17.90
2017-12-22T21:20:51.856Z,18.83
2017-12-22T21:23:20.902Z,20.97
2017-12-22T21:25:49.267Z,20.90
2017-12-22T21:28:17.601Z,16.97
2017-12-22T21:30:45.948Z,19.20
2017-12-22T21:33:14.341Z,18.10
2017-12-22T21:35:42.988Z,18.73
2017-12-22T21:38:11.446Z,16.77
2017-12-22T21:40:40.012Z,16.97
2017-12-22T21:43:08.746Z,17.83
2017-12-22T21:45:37.376Z,16.93
2017-12-22T21:48:05.917Z,17.37
2017-12-22T21:50:34.295Z,15.40
2017-12-22T21:53:02.542Z,17.50
2017-12-22T21:55:31.002Z,20.80
2017-12-22T21:57:59.265Z,20.23
2017-12-22T22:00:27.582Z,19.40
2017-12-22T22:02:56.004Z,19.70
2017-12-22T22:05:24.331Z,22.33
2017-12-22T22:07:52.561Z,18.13
2017-12-22T22:10:20.780Z,17.80
2017-12-22T22:12:49.031Z,23.37
2017-12-22T22:15:17.240Z,17.47
2017-12-22T22:17:45.469Z,18.93
2017-12-22T22:20:13.687Z,21.20
2017-12-22T22:22:41.933Z,18.70
2017-12-22T22:25:10.923Z,19.20
2017-12-22T22:27:39.947Z,22.27
2017-12-22T22:30:08.176Z,18.63
2017-12-22T22:32:36.397Z,19.47
2017-12-22T22:35:04.621Z,21.47
2017-12-22T22:37:33.630Z,19.97
2017-12-22T22:40:02.636Z,18.90
2017-12-22T22:42:31.629Z,20.67
2017-12-22T22:44:59.869Z,16.80
2017-12-22T22:47:28.092Z,23.10
2017-12-22T22:49:56.323Z,19.97
2017-12-22T22:52:24.823Z,20.53
2017-12-22T22:54:53.845Z,18.70
2017-12-22T22:57:22.087Z,17.33
2017-12-22T22:59:51.085Z,19.23
2017-12-22T23:02:20.077Z,21.20
2017-12-22T23:04:49.090Z,23.33
2017-12-22T23:07:17.312Z,23.20
2017-12-22T23:09:45.560Z,22.80
2017-12-22T23:12:13.792Z,28.47
2017-12-22T23:14:42.025Z,25.60
2017-12-22T23:17:10.270Z,28.33
2017-12-22T23:19:38.496Z,29.23
2017-12-22T23:22:06.731Z,27.53
2017-12-22T23:24:35.158Z,27.60
2017-12-22T23:27:03.652Z,24.80
2017-12-22T23:29:31.905Z,25.93
2017-12-22T23:32:00.162Z,30.63
2017-12-22T23:34:28.390Z,27.53
2017-12-22T23:36:56.616Z,32.37
2017-12-22T23:39:24.879Z,28.43
2017-12-22T23:41:53.092Z,29.83
2017-12-22T23:44:22.108Z,27.50
2017-12-22T23:46:50.391Z,28.10
2017-12-22T23:49:19.386Z,31.57
2017-12-22T23:51:47.623Z,28.70
2017-12-22T23:54:15.866Z,33.87
2017-12-22T23:56:44.082Z,30.17
2017-12-22T23:59:12.322Z,34.30
